createdAt,value
2022-07-29T00:01:19.509Z,53.62
2022-07-29T00:03:47.030Z,54.07
2022-07-29T00:06:15.653Z,53.96
2022-07-29T00:08:42.740Z,54.85
2022-07-29T00:11:09.935Z,55.31
2022-07-29T00:13:37.289Z,55.53
2022-07-29T00:16:05.314Z,55.54
2022-07-29T00:18:33.476Z,56.12
2022-07-29T00:21:00.891Z,55.85
2022-07-29T00:23:27.947Z,56.21
2022-07-29T00:25:54.946Z,55.96
2022-07-29T00:28:21.885Z,56.73
2022-07-29T00:30:49.052Z,57.06
2022-07-29T00:33:16.126Z,57.26
2022-07-29T00:35:45.869Z,57.82
2022-07-29T00:38:18.754Z,57.75
2022-07-29T00:40:47.257Z,57.49
2022-07-29T00:43:16.202Z,57.33
2022-07-29T00:45:43.795Z,57.83
2022-07-29T00:48:11.459Z,58.41
2022-07-29T00:50:39.308Z,58.47
2022-07-29T00:53:09.602Z,59.00
2022-07-29T00:55:36.860Z,59.10
2022-07-29T00:58:04.056Z,59.54
2022-07-29T01:00:31.615Z,59.16
2022-07-29T01:02:58.898Z,60.03
2022-07-29T01:05:50.188Z,59.25
2022-07-29T01:08:17.455Z,59.49
2022-07-29T01:10:45.525Z,59.47
2022-07-29T01:13:13.563Z,59.98
2022-07-29T01:15:49.105Z,60.62
2022-07-29T01:18:48.387Z,60.42
2022-07-29T01:21:39.005Z,60.07
2022-07-29T01:24:51.800Z,59.42
2022-07-29T01:27:30.582Z,60.33
2022-07-29T01:30:01.085Z,60.54
2022-07-29T01:32:39.086Z,60.69
2022-07-29T01:35:23.404Z,60.60
2022-07-29T01:38:12.347Z,60.29
2022-07-29T01:40:49.588Z,60.38
2022-07-29T01:43:22.677Z,60.74
2022-07-29T01:45:58.892Z,60.93
2022-07-29T01:48:40.295Z,60.44
2022-07-29T01:51:16.268Z,61.13
2022-07-29T01:53:57.996Z,61.15
2022-07-29T01:56:26.726Z,61.22
2022-07-29T01:58:55.744Z,60.97
2022-07-29T02:01:26.928Z,61.08
2022-07-29T02:03:55.434Z,61.33
2022-07-29T02:06:24.139Z,61.21
2022-07-29T02:08:54.194Z,61.29
2022-07-29T02:11:21.139Z,61.23
2022-07-29T02:13:49.951Z,61.31
2022-07-29T02:16:22.355Z,61.38
2022-07-29T02:18:52.457Z,61.20
2022-07-29T02:21:28.442Z,61.35
2022-07-29T02:24:00.166Z,61.66
2022-07-29T02:26:29.711Z,61.58
2022-07-29T02:28:58.746Z,61.59
2022-07-29T02:31:31.608Z,61.36
2022-07-29T02:33:59.661Z,62.57
2022-07-29T02:36:28.231Z,62.28
2022-07-29T02:38:58.737Z,62.34
2022-07-29T02:41:31.747Z,62.66
2022-07-29T02:44:07.648Z,62.90
2022-07-29T02:46:37.942Z,62.67
2022-07-29T02:49:35.800Z,62.85
2022-07-29T02:52:22.359Z,62.71
2022-07-29T02:55:03.520Z,62.46
2022-07-29T02:57:54.690Z,62.84
2022-07-29T03:00:28.893Z,62.56
2022-07-29T03:02:59.806Z,62.09
2022-07-29T03:05:27.865Z,62.90
2022-07-29T03:08:03.194Z,63.22
2022-07-29T03:10:31.591Z,62.83
2022-07-29T03:12:59.544Z,63.10
2022-07-29T03:15:27.515Z,63.18
2022-07-29T03:17:56.555Z,62.91
2022-07-29T03:20:24.003Z,63.22
2022-07-29T03:22:51.374Z,63.19
2022-07-29T03:25:20.990Z,63.21
2022-07-29T03:27:49.528Z,62.64
2022-07-29T03:30:18.404Z,62.66
2022-07-29T03:32:53.856Z,63.21
2022-07-29T03:35:21.599Z,63.12
2022-07-29T03:37:48.613Z,63.63
2022-07-29T03:40:25.954Z,63.25
2022-07-29T03:42:55.877Z,63.25
2022-07-29T03:45:24.958Z,63.08
2022-07-29T03:48:05.058Z,63.30
2022-07-29T03:50:34.203Z,63.84
2022-07-29T03:53:02.821Z,63.51
2022-07-29T03:55:35.042Z,63.63
2022-07-29T03:58:04.202Z,63.85
2022-07-29T04:00:33.202Z,63.33
2022-07-29T04:03:00.845Z,63.61
2022-07-29T04:05:28.348Z,63.99
2022-07-29T04:07:55.458Z,64.22
2022-07-29T04:10:30.658Z,64.09
2022-07-29T04:13:00.823Z,64.18
2022-07-29T04:15:31.358Z,64.34
2022-07-29T04:18:00.123Z,64.33
2022-07-29T04:20:27.485Z,64.06
2022-07-29T04:22:54.455Z,64.42
2022-07-29T04:25:21.667Z,64.75
2022-07-29T04:28:04.055Z,64.77
2022-07-29T04:30:32.885Z,64.70
2022-07-29T04:33:02.130Z,64.99
2022-07-29T04:35:31.097Z,64.64
2022-07-29T04:38:07.049Z,65.46
2022-07-29T04:40:35.099Z,65.29
2022-07-29T04:43:05.885Z,65.58
2022-07-29T04:45:33.230Z,65.60
2022-07-29T04:48:00.236Z,65.15
2022-07-29T04:50:27.407Z,65.64
2022-07-29T04:52:54.432Z,65.95
2022-07-29T04:55:21.710Z,65.85
2022-07-29T04:57:49.189Z,65.34
2022-07-29T05:00:17.141Z,65.76
2022-07-29T05:02:44.475Z,66.41
2022-07-29T05:05:11.947Z,66.19
2022-07-29T05:07:42.357Z,66.23
2022-07-29T05:10:10.030Z,66.29
2022-07-29T05:12:37.091Z,66.37
2022-07-29T05:15:04.657Z,66.20
2022-07-29T05:17:31.775Z,66.11
2022-07-29T05:19:58.960Z,65.95
2022-07-29T05:22:26.264Z,65.32
2022-07-29T05:24:53.581Z,65.64
2022-07-29T05:27:20.979Z,65.48
2022-07-29T05:29:48.358Z,65.31
2022-07-29T05:32:15.681Z,66.08
2022-07-29T05:34:50.813Z,65.67
2022-07-29T05:37:20.911Z,65.87
2022-07-29T05:39:50.694Z,64.63
2022-07-29T05:42:26.317Z,65.03
2022-07-29T05:44:54.075Z,64.43
2022-07-29T05:47:25.084Z,64.74
2022-07-29T05:49:52.213Z,65.02
2022-07-29T05:52:19.523Z,65.00
2022-07-29T05:54:46.757Z,64.78
2022-07-29T05:57:22.696Z,65.06
2022-07-29T05:59:51.239Z,64.11
2022-07-29T06:02:18.812Z,64.47
2022-07-29T06:04:45.976Z,64.22
2022-07-29T06:07:12.996Z,63.71
2022-07-29T06:09:40.207Z,64.01
2022-07-29T06:12:07.374Z,63.71
2022-07-29T06:14:34.367Z,64.01
2022-07-29T06:17:01.533Z,63.77
2022-07-29T06:19:28.586Z,63.84
2022-07-29T06:21:55.958Z,63.84
2022-07-29T06:24:23.002Z,62.48
2022-07-29T06:26:50.175Z,62.46
2022-07-29T06:29:17.155Z,62.93
2022-07-29T06:31:44.122Z,63.32
2022-07-29T06:34:11.351Z,62.65
2022-07-29T06:36:39.751Z,62.85
2022-07-29T06:39:09.460Z,62.35
2022-07-29T06:41:38.639Z,63.04
2022-07-29T06:44:10.881Z,62.15
2022-07-29T06:46:38.001Z,62.79
2022-07-29T06:49:05.931Z,63.02
2022-07-29T06:51:33.192Z,62.81
2022-07-29T06:54:03.379Z,62.21
2022-07-29T06:56:39.856Z,61.31
2022-07-29T06:59:10.117Z,60.91
2022-07-29T07:01:43.171Z,60.91
2022-07-29T07:04:11.821Z,61.22
2022-07-29T07:06:39.278Z,61.84
2022-07-29T07:09:06.673Z,60.70
2022-07-29T07:11:34.419Z,61.17
2022-07-29T07:14:03.938Z,60.46
2022-07-29T07:16:32.731Z,60.35
2022-07-29T07:19:00.748Z,59.44
2022-07-29T07:21:30.143Z,59.32
2022-07-29T07:23:58.613Z,58.41
2022-07-29T07:26:26.232Z,59.04
2022-07-29T07:28:53.224Z,59.02
2022-07-29T07:31:20.970Z,59.44
2022-07-29T07:33:48.238Z,59.34
2022-07-29T07:36:15.664Z,57.95
2022-07-29T07:38:42.887Z,58.61
2022-07-29T07:41:10.041Z,59.01
2022-07-29T07:43:37.076Z,58.70
2022-07-29T07:46:04.179Z,58.86
2022-07-29T07:48:31.430Z,58.49
2022-07-29T07:50:58.422Z,58.21
2022-07-29T07:53:25.517Z,58.11
2022-07-29T07:56:10.069Z,58.46
2022-07-29T07:58:38.406Z,58.00
2022-07-29T08:01:05.507Z,58.18
2022-07-29T08:03:32.627Z,58.10
2022-07-29T08:05:59.631Z,57.17
2022-07-29T08:08:26.690Z,57.24
2022-07-29T08:10:53.782Z,57.28
2022-07-29T08:13:29.321Z,57.36
2022-07-29T08:16:12.360Z,57.23
2022-07-29T08:18:41.843Z,56.95
2022-07-29T08:21:09.074Z,56.86
2022-07-29T08:23:46.239Z,57.52
2022-07-29T08:26:16.542Z,56.75
2022-07-29T08:28:46.841Z,57.13
2022-07-29T08:31:15.051Z,56.94
2022-07-29T08:33:43.329Z,56.91
2022-07-29T08:36:11.120Z,56.79
2022-07-29T08:38:38.254Z,57.08
2022-07-29T08:41:05.954Z,56.54
2022-07-29T08:43:36.094Z,56.83
2022-07-29T08:46:03.242Z,56.36
2022-07-29T08:48:30.833Z,56.12
2022-07-29T08:50:59.017Z,56.11
2022-07-29T08:53:28.190Z,55.73
2022-07-29T08:55:57.084Z,55.45
2022-07-29T08:58:25.972Z,55.32
2022-07-29T09:00:56.679Z,55.10
2022-07-29T09:03:31.322Z,54.39
2022-07-29T09:06:00.251Z,53.83
2022-07-29T09:08:27.663Z,53.81
2022-07-29T09:10:56.847Z,53.82
2022-07-29T09:13:24.073Z,53.73
2022-07-29T09:15:51.014Z,53.92
2022-07-29T09:18:41.731Z,53.45
2022-07-29T09:21:33.558Z,53.10
2022-07-29T09:24:11.594Z,52.90
2022-07-29T09:26:45.421Z,52.96
2022-07-29T09:29:16.223Z,52.42
2022-07-29T09:31:49.823Z,52.56
2022-07-29T09:34:22.019Z,52.77
2022-07-29T09:36:52.041Z,51.93
2022-07-29T09:39:45.181Z,52.00
2022-07-29T09:42:13.442Z,51.82
2022-07-29T09:44:49.158Z,51.96
2022-07-29T09:47:18.558Z,51.92
2022-07-29T09:50:12.183Z,51.20
2022-07-29T09:52:54.378Z,51.17
2022-07-29T09:55:21.672Z,51.66
2022-07-29T09:57:49.175Z,51.77
2022-07-29T10:00:23.891Z,51.24
2022-07-29T10:02:52.019Z,50.42
2022-07-29T10:05:25.877Z,50.31
2022-07-29T10:07:59.346Z,49.92
2022-07-29T10:10:27.328Z,50.18
2022-07-29T10:13:09.805Z,50.67
2022-07-29T10:15:44.795Z,50.36
2022-07-29T10:18:14.553Z,50.10
2022-07-29T10:20:42.638Z,49.93
2022-07-29T10:23:11.090Z,49.91
2022-07-29T10:25:38.524Z,50.76
2022-07-29T10:28:07.246Z,50.26
2022-07-29T10:30:34.734Z,50.41
2022-07-29T10:33:28.827Z,49.71
2022-07-29T10:36:20.074Z,49.55
2022-07-29T10:39:41.847Z,49.48
2022-07-29T10:42:20.310Z,48.60
2022-07-29T10:44:57.764Z,48.37
2022-07-29T10:47:28.385Z,48.72
2022-07-29T10:50:01.618Z,48.70
2022-07-29T10:52:50.381Z,48.79
2022-07-29T10:55:45.538Z,48.24
2022-07-29T10:58:21.317Z,47.37
2022-07-29T11:00:53.681Z,47.01
2022-07-29T11:03:52.328Z,47.57
2022-07-29T11:06:26.188Z,47.46
2022-07-29T11:09:20.323Z,47.91
2022-07-29T11:11:53.488Z,48.04
2022-07-29T11:15:03.644Z,47.31
2022-07-29T11:17:47.020Z,46.92
2022-07-29T11:20:42.528Z,46.76
2022-07-29T11:23:33.874Z,46.64
2022-07-29T11:26:13.615Z,45.18
2022-07-29T11:29:05.500Z,45.59
2022-07-29T11:31:34.350Z,46.24
2022-07-29T11:34:22.669Z,46.25
2022-07-29T11:37:14.974Z,47.20
2022-07-29T11:39:54.068Z,46.96
2022-07-29T11:42:28.194Z,46.74
2022-07-29T11:45:43.403Z,45.75
2022-07-29T11:48:29.854Z,45.88
2022-07-29T11:50:49.368Z,44.92
2022-07-29T11:53:17.264Z,45.73
2022-07-29T11:55:51.315Z,46.29
2022-07-29T11:58:26.278Z,46.33
2022-07-29T12:00:55.782Z,45.03
2022-07-29T12:03:32.957Z,45.70
2022-07-29T12:06:07.590Z,45.39
2022-07-29T12:08:43.602Z,44.01
2022-07-29T12:11:21.300Z,44.49
2022-07-29T12:13:49.822Z,43.95
2022-07-29T12:16:25.755Z,44.09
2022-07-29T12:19:01.988Z,44.05
2022-07-29T12:21:54.031Z,43.35
2022-07-29T12:24:26.669Z,43.60
2022-07-29T12:26:59.981Z,43.92
2022-07-29T12:29:33.801Z,44.92
2022-07-29T12:32:14.233Z,43.71
2022-07-29T12:34:42.977Z,43.91
2022-07-29T12:37:11.210Z,43.87
2022-07-29T12:39:39.391Z,43.28
2022-07-29T12:42:18.416Z,42.86
2022-07-29T12:44:51.032Z,42.84
2022-07-29T12:47:19.837Z,42.92
2022-07-29T12:49:47.963Z,43.58
2022-07-29T12:52:37.209Z,43.02
2022-07-29T12:55:06.185Z,42.37
2022-07-29T12:57:54.465Z,43.49
2022-07-29T13:00:25.859Z,42.60
2022-07-29T13:02:59.297Z,42.86
2022-07-29T13:05:49.176Z,43.28
2022-07-29T13:08:22.724Z,42.81
2022-07-29T13:10:50.358Z,43.09
2022-07-29T13:13:17.373Z,42.62
2022-07-29T13:15:49.669Z,42.69
2022-07-29T13:18:37.226Z,40.54
2022-07-29T13:21:16.671Z,40.97
2022-07-29T13:23:45.944Z,41.68
2022-07-29T13:26:13.493Z,42.56
2022-07-29T13:28:44.109Z,42.03
2022-07-29T13:31:12.312Z,42.31
2022-07-29T13:33:39.340Z,41.90
2022-07-29T13:36:07.055Z,41.85
2022-07-29T13:38:34.932Z,42.14
2022-07-29T13:41:02.864Z,41.91
2022-07-29T13:43:30.391Z,42.14
2022-07-29T13:45:57.487Z,43.02
2022-07-29T13:48:24.459Z,43.66
2022-07-29T13:50:51.529Z,44.13
2022-07-29T13:53:18.483Z,43.38
2022-07-29T13:55:46.319Z,44.64
2022-07-29T13:58:14.528Z,44.68
2022-07-29T14:00:41.517Z,44.48
2022-07-29T14:03:08.566Z,44.35
2022-07-29T14:05:35.539Z,44.07
2022-07-29T14:08:02.542Z,44.41
2022-07-29T14:10:30.363Z,44.21
2022-07-29T14:12:58.329Z,44.43
2022-07-29T14:15:26.041Z,44.11
2022-07-29T14:17:52.993Z,45.33
2022-07-29T14:20:26.406Z,44.75
2022-07-29T14:22:53.417Z,45.91
2022-07-29T14:25:21.695Z,46.14
2022-07-29T14:27:50.599Z,47.34
2022-07-29T14:30:17.823Z,49.07
2022-07-29T14:32:44.882Z,50.62
2022-07-29T14:35:12.328Z,52.05
2022-07-29T14:37:42.832Z,53.79
2022-07-29T14:40:12.343Z,54.87
2022-07-29T14:42:40.023Z,56.17
2022-07-29T14:45:09.517Z,56.41
2022-07-29T14:47:36.888Z,57.38
2022-07-29T14:50:06.186Z,57.33
2022-07-29T14:52:36.184Z,57.04
2022-07-29T14:55:05.196Z,56.87
2022-07-29T14:57:43.356Z,57.31
2022-07-29T15:00:12.153Z,58.40
2022-07-29T15:03:00.328Z,58.89
2022-07-29T15:05:26.709Z,59.06
2022-07-29T15:07:54.481Z,59.11
2022-07-29T15:10:21.688Z,59.26
2022-07-29T15:12:57.943Z,59.81
2022-07-29T15:18:42.810Z,59.47
2022-07-29T15:21:10.852Z,59.72
2022-07-29T15:23:38.180Z,59.36
2022-07-29T15:26:05.487Z,59.97
2022-07-29T15:28:32.834Z,59.96
2022-07-29T15:31:00.363Z,59.84
2022-07-29T15:33:27.709Z,59.96
2022-07-29T15:35:57.100Z,60.52
2022-07-29T15:38:28.847Z,60.58
2022-07-29T15:40:56.087Z,60.82
2022-07-29T15:43:24.269Z,60.49
2022-07-29T15:46:12.309Z,60.88
2022-07-29T15:48:40.344Z,60.94
2022-07-29T15:51:07.758Z,60.88
2022-07-29T15:53:35.306Z,61.35
2022-07-29T15:56:03.446Z,61.25
2022-07-29T15:58:31.017Z,61.31
2022-07-29T16:00:58.086Z,61.24
2022-07-29T16:03:25.188Z,60.60
2022-07-29T16:05:52.169Z,60.86
2022-07-29T16:08:19.401Z,61.09
2022-07-29T16:10:46.487Z,61.10
2022-07-29T16:13:17.115Z,61.82
2022-07-29T16:15:46.259Z,61.03
2022-07-29T16:18:31.291Z,61.26
2022-07-29T16:20:58.738Z,61.16
2022-07-29T16:23:25.746Z,61.13
2022-07-29T16:26:01.270Z,60.92
2022-07-29T16:28:30.387Z,60.36
2022-07-29T16:30:58.209Z,60.57
2022-07-29T16:33:25.685Z,59.46
2022-07-29T16:35:53.261Z,59.48
2022-07-29T16:38:20.394Z,59.38
2022-07-29T16:40:47.476Z,58.79
2022-07-29T16:43:14.871Z,58.46
2022-07-29T16:45:46.276Z,58.25
2022-07-29T16:48:15.113Z,58.54
2022-07-29T16:50:45.498Z,58.17
2022-07-29T16:53:12.484Z,57.70
2022-07-29T16:55:42.353Z,56.67
2022-07-29T16:58:11.219Z,56.73
2022-07-29T17:00:39.707Z,57.18
2022-07-29T17:03:07.056Z,57.24
2022-07-29T17:05:53.692Z,57.66
2022-07-29T17:08:22.204Z,58.09
2022-07-29T17:10:49.584Z,58.42
2022-07-29T17:13:16.538Z,58.88
2022-07-29T17:15:44.148Z,59.51
2022-07-29T17:18:12.407Z,58.61
2022-07-29T17:20:41.958Z,58.15
2022-07-29T17:23:09.604Z,58.63
2022-07-29T17:25:37.551Z,59.14
2022-07-29T17:28:05.259Z,60.08
2022-07-29T17:30:32.486Z,60.39
2022-07-29T17:32:59.546Z,61.12
2022-07-29T17:35:45.108Z,61.09
2022-07-29T17:38:12.133Z,61.72
2022-07-29T17:40:39.153Z,61.90
2022-07-29T17:43:09.261Z,62.21
2022-07-29T17:45:49.037Z,63.00
2022-07-29T17:48:18.309Z,62.81
2022-07-29T17:50:46.426Z,62.88
2022-07-29T17:53:16.797Z,62.99
2022-07-29T17:55:46.378Z,63.58
2022-07-29T17:58:15.833Z,64.09
2022-07-29T18:00:43.016Z,64.33
2022-07-29T18:03:10.592Z,64.29
2022-07-29T18:05:37.734Z,64.87
2022-07-29T18:08:05.160Z,64.79
2022-07-29T18:10:32.447Z,65.17
2022-07-29T18:12:59.674Z,64.77
2022-07-29T18:15:26.791Z,65.40
2022-07-29T18:17:57.617Z,64.98
2022-07-29T18:20:26.887Z,65.50
2022-07-29T18:22:54.203Z,65.96
2022-07-29T18:25:21.464Z,65.50
2022-07-29T18:27:48.962Z,65.79
2022-07-29T18:30:16.505Z,66.56
2022-07-29T18:32:59.162Z,66.96
2022-07-29T18:35:32.397Z,66.30
2022-07-29T18:38:02.200Z,66.55
2022-07-29T18:40:32.787Z,66.95
2022-07-29T18:42:59.775Z,67.02
2022-07-29T18:45:28.345Z,66.96
2022-07-29T18:47:56.862Z,65.95
2022-07-29T18:50:29.687Z,66.78
2022-07-29T18:52:59.006Z,67.00
2022-07-29T18:55:26.791Z,67.13
2022-07-29T18:57:56.530Z,67.00
2022-07-29T19:00:26.132Z,66.39
2022-07-29T19:02:53.512Z,66.70
2022-07-29T19:05:21.033Z,67.19
2022-07-29T19:07:48.076Z,66.78
2022-07-29T19:10:15.053Z,67.42
2022-07-29T19:12:42.495Z,67.37
2022-07-29T19:15:10.697Z,67.51
2022-07-29T19:17:38.855Z,67.47
2022-07-29T19:20:08.883Z,67.42
2022-07-29T19:22:36.147Z,67.66
2022-07-29T19:25:03.412Z,67.19
2022-07-29T19:27:30.696Z,67.33
2022-07-29T19:29:59.497Z,67.13
2022-07-29T19:32:27.289Z,67.42
2022-07-29T19:35:19.003Z,67.39
2022-07-29T19:37:46.025Z,67.19
2022-07-29T19:40:14.062Z,67.77
2022-07-29T19:42:41.068Z,67.74
2022-07-29T19:45:08.969Z,67.66
2022-07-29T19:47:36.529Z,67.72
2022-07-29T19:50:04.165Z,68.31
2022-07-29T19:52:31.119Z,68.71
2022-07-29T19:54:58.544Z,68.93
2022-07-29T19:57:25.711Z,68.99
2022-07-29T19:59:54.443Z,68.69
2022-07-29T20:02:23.668Z,68.69
2022-07-29T20:04:50.843Z,68.67
2022-07-29T20:07:17.897Z,68.56
2022-07-29T20:09:46.054Z,68.77
2022-07-29T20:12:13.198Z,68.71
2022-07-29T20:14:40.355Z,69.02
2022-07-29T20:17:07.531Z,69.11
2022-07-29T20:19:35.924Z,68.94
2022-07-29T20:22:03.250Z,69.11
2022-07-29T20:24:30.401Z,68.99
2022-07-29T20:26:57.753Z,68.69
2022-07-29T20:29:25.660Z,68.51
2022-07-29T20:31:56.208Z,68.34
2022-07-29T20:34:24.252Z,68.91
2022-07-29T20:36:51.687Z,69.07
2022-07-29T20:39:21.027Z,69.11
2022-07-29T20:41:49.217Z,68.90
2022-07-29T20:44:18.764Z,69.30
2022-07-29T20:46:45.890Z,69.37
2022-07-29T20:49:12.961Z,68.85
2022-07-29T20:51:43.951Z,69.60
2022-07-29T20:54:12.239Z,69.26
2022-07-29T20:56:39.951Z,69.57
2022-07-29T20:59:08.917Z,70.01
2022-07-29T21:01:36.276Z,69.98
2022-07-29T21:04:03.891Z,69.88
2022-07-29T21:06:31.580Z,69.66
2022-07-29T21:08:59.803Z,70.10
2022-07-29T21:11:44.323Z,69.81
2022-07-29T21:14:22.960Z,70.08
2022-07-29T21:16:50.662Z,70.01
2022-07-29T21:19:17.741Z,69.63
2022-07-29T21:21:44.825Z,70.08
2022-07-29T21:24:12.172Z,70.52
2022-07-29T21:26:39.366Z,70.49
2022-07-29T21:29:06.777Z,70.34
2022-07-29T21:31:34.118Z,70.52
2022-07-29T21:34:01.119Z,70.40
2022-07-29T21:36:47.662Z,70.63
2022-07-29T21:39:15.484Z,71.26
2022-07-29T21:41:43.156Z,70.87
2022-07-29T21:44:10.323Z,71.48
2022-07-29T21:46:37.606Z,71.15
2022-07-29T21:49:04.851Z,71.03
2022-07-29T21:51:31.869Z,70.67
2022-07-29T21:53:58.889Z,70.94
2022-07-29T21:56:27.833Z,70.87
2022-07-29T21:58:55.830Z,71.08
2022-07-29T22:01:22.953Z,71.03
2022-07-29T22:03:50.017Z,70.96
2022-07-29T22:06:18.001Z,70.97
2022-07-29T22:08:46.115Z,70.90
2022-07-29T22:11:13.554Z,71.14
2022-07-29T22:13:40.755Z,71.25
2022-07-29T22:16:10.109Z,71.37
2022-07-29T22:18:37.118Z,70.84
2022-07-29T22:21:04.131Z,70.73
2022-07-29T22:23:31.331Z,70.52
2022-07-29T22:25:58.542Z,71.10
2022-07-29T22:28:25.742Z,71.01
2022-07-29T22:30:52.726Z,70.70
2022-07-29T22:33:19.790Z,70.79
2022-07-29T22:35:48.725Z,71.18
2022-07-29T22:38:17.902Z,70.75
2022-07-29T22:40:46.968Z,70.96
2022-07-29T22:43:15.920Z,70.64
2022-07-29T22:45:42.897Z,70.94
2022-07-29T22:48:10.531Z,71.00
2022-07-29T22:50:38.529Z,70.88
2022-07-29T22:53:05.528Z,70.44
2022-07-29T22:55:32.494Z,70.26
2022-07-29T22:57:59.456Z,70.52
2022-07-29T23:00:26.469Z,71.00
2022-07-29T23:02:53.387Z,70.98
2022-07-29T23:05:20.396Z,71.24
2022-07-29T23:07:47.449Z,71.35
2022-07-29T23:10:14.409Z,71.33
2022-07-29T23:12:41.343Z,71.22
2022-07-29T23:15:08.668Z,71.33
2022-07-29T23:17:36.906Z,71.31
2022-07-29T23:20:09.923Z,71.36
2022-07-29T23:22:37.858Z,71.41
2022-07-29T23:25:06.397Z,71.15
2022-07-29T23:27:33.686Z,71.70
2022-07-29T23:30:01.109Z,70.85
2022-07-29T23:32:28.230Z,70.88
2022-07-29T23:34:55.514Z,71.50
2022-07-29T23:37:22.647Z,71.62
2022-07-29T23:39:49.614Z,71.10
2022-07-29T23:42:16.663Z,71.62
2022-07-29T23:44:43.765Z,71.30
2022-07-29T23:47:10.751Z,71.45
2022-07-29T23:49:37.958Z,71.78
2022-07-29T23:52:05.853Z,72.21
2022-07-29T23:54:33.349Z,72.31
2022-07-29T23:57:01.213Z,72.75
2022-07-29T23:59:28.381Z,73.42
